Terminal Aerodrome Forecast
Issued by NWS Des Moines, IA

Home | Current Version | Previous Version | Text Only | Print | Product List | Glossary On
Versions: 1 2 3 4 5 6 7 8 9 10 11 12 13 14 15 16 17 18 19 20 21 22 23 24 25 26 27 28 29 30 31 32 33 34 35 36 37 38 39 40 41 42 43
000
FTUS43 KDMX 291730
TAFALO
TAF
KALO 291730Z 2918/3018 32020G27KT P6SM BKN017 OVC025
     FM300000 32017G24KT P6SM OVC018
     FM300700 33010KT P6SM BKN018
     FM301400 VRB04KT P6SM SCT020 BKN160=

USA.gov is the U.S. government's official web portal to all federal, state and local government web resources and services.